Freedom, Wyoming
Current Conditions -  °F | °C
As of 11:15 PM on Friday 28 Nov 2014 (Local Time) from KAFO Reporting Station
Clear Clear  
Wind Chill: 41°   Ceiling: Unl
Heat Index: 46°   Visibility: 10mi
Dew Point: 16°   Wind: 10mph
Humidity: 29%   Direction: 180°S
Pressure: 29.75"   Gusts: 16mph
Location:  42.98°N, 111.04°W
Report Text: KAFO 290615Z AUTO 18009G14KT 10SM CLR 08/M09 A2975 RMK AO2
Loading
Personal Weather Stations






























Interactive Weather Map New forecast layout! Learn more

10-Day Weather Forecast

Advertisements
Track Severe Weather on mobile